Home > Products > Valid Products > MTR

000
SAUS43 KDTX 222254
MTRP58
METAR KP58 222251Z AUTO 20007KT 180V240 05/03 A2986 RMK AO1 SLP119
T00500028 $





000
SAUS43 KDTX 222156 COR
MTRP58
METAR KP58 222151Z AUTO 21008G15KT 05/03 A2985 RMK AO1 SLP117
T00500028 $





000
SAUS43 KDTX 222156 COR
MTRP58
METAR KP58 222151Z AUTO 21008G15KT 05/03 A2985 RMK AO1 SLP117
T00500028 $





000
SAUS43 KDTX 222154 COR
MTRP58
METAR KP58 222151Z AUTO 21008G15KT 05/03 A2985 RMK AO1 SLP117
T00500028 $





000
SAUS43 KDTX 222154 COR
MTRP58
METAR KP58 222151Z AUTO 21008G15KT 05/03 A2985 RMK AO1 SLP117
T00500028 $





000
SAUS43 KDTX 222054
MTRP58
METAR KP58 222051Z AUTO 20007G17KT 120V230 05/02 A2983 RMK AO1
PRESFR SLP112 T00500022 $





000
SAUS43 KDTX 221953
MTRP58
METAR KP58 221951Z AUTO 22012G20KT 04/02 A2985 RMK AO1 SLP118
T00440022 $





000
SAUS43 KDTX 221853
MTRP58
METAR KP58 221851Z AUTO VRB05G18KT 04/02 A2986 RMK AO1 SLP122
T00390017





000
SAUS43 KDTX 221752
MTRP58
METAR KP58 221751Z AUTO 23011G20KT 03/01 A2989 RMK AO1 SLP130 60010
T00330011 10033 20000 58022





000
SAUS43 KDTX 221654
MTRP58
METAR KP58 221651Z AUTO 23011G22KT 03/01 A2991 RMK AO1 SLP140
T00280006





000
SAUS43 KDTX 221552
MTRP58
METAR KP58 221551Z AUTO 23015G26KT 02/M01 A2993 RMK AO1 PK WND
24026/1550 SLP148 P0001 T00221006





000
SAUS43 KDTX 221552
MTRP58
METAR KP58 221551Z AUTO 23015G26KT 02/M01 A2993 RMK AO1 PK WND
24026/1550 SLP148 P0001 T00221006





000
SAUS43 KDTX 221454
MTRP58
METAR KP58 221451Z AUTO 23010G21KT 180V260 01/M01 A2995 RMK AO1
SLP155 P0006 60009 T00111011 58024





000
SAUS43 KDTX 221354
MTRP58
METAR KP58 221351Z AUTO 22009G17KT 01/M03 A2999 RMK AO1 SLP167 P0003
T00061028





000
SAUS43 KDTX 221254
MTRP58
METAR KP58 221251Z AUTO 21009G18KT 180V250 00/M08 A3000 RMK AO1
SLP172 T00001083





000
SAUS43 KDTX 221154
MTRP58
METAR KP58 221151Z AUTO 21006G16KT 00/M09 A3002 RMK AO1 SLP180
T00001094 10000 21039 56028





000
SAUS43 KDTX 221054
MTRP58
METAR KP58 221051Z AUTO 21008G18KT M01/M11 A3005 RMK AO1 SLP188
T10061106





000
SAUS43 KDTX 220954
MTRP58
METAR KP58 220951Z AUTO 20009G15KT M02/M12 A3006 RMK AO1 SLP194
T10171117





000
SAUS43 KDTX 220854
MTRP58
METAR KP58 220851Z AUTO 21009G16KT 170V260 M03/M12 A3011 RMK AO1
SLP209 T10281122 56031





000
SAUS43 KDTX 220754
MTRP58
METAR KP58 220751Z AUTO 20006G16KT M03/M12 A3014 RMK AO1 SLP220
T10281122





000
SAUS43 KDTX 220654
MTRP58
METAR KP58 220651Z AUTO 21007G15KT M03/M12 A3016 RMK AO1 PRESFR
SLP226 T10331117





000
SAUS43 KDTX 220556 COR
MTRP58
METAR KP58 220551Z AUTO 21010G19KT M04/M12 A3020 RMK AO1 SLP241
T10391117 11039 21056 56024





000
SAUS43 KDTX 220553 COR
MTRP58
METAR KP58 220551Z AUTO 21010G19KT M04/M12 A3020 RMK AO1 SLP241
T10391117 11039 21056 56024





000
SAUS43 KDTX 220454
MTRP58
METAR KP58 220451Z AUTO 22009G16KT M04/M11 A3022 RMK AO1 SLP249
T10391111 410331072





000
SAUS43 KDTX 220354
MTRP58
METAR KP58 220351Z AUTO VRB04G16KT M04/M11 A3025 RMK AO1 SLP257
T10391111





000
SAUS43 KDTX 220253
MTRP58
METAR KP58 220251Z AUTO 21007KT M04/M12 A3027 RMK AO1 SLP266
T10441117 58024





000
SAUS43 KDTX 220157 COR
MTRP58
METAR KP58 220151Z AUTO 00000KT M05/M12 A3030 RMK AO1 SLP276
T10501122





000
SAUS43 KDTX 220053
MTRP58
METAR KP58 220051Z AUTO 21006KT M06/M12 A3033 RMK AO1 SLP287
T10561122





000
SAUS43 KDTX 212354
MTRP58
METAR KP58 212351Z AUTO VRB05KT M05/M12 A3035 RMK AO1 SLP292
T10501117 11033 21056 56005





000
SAUS43 KDTX 212254
MTRP58
METAR KP58 212251Z AUTO VRB05KT M04/M12 A3035 RMK AO1 SLP295
T10441117





000
SAUS43 KDTX 212157 COR
MTRP58
METAR KP58 212151Z AUTO 22006KT M04/M12 A3035 RMK AO1 SLP294
T10391122





000
SAUS43 KDTX 212154 COR
MTRP58
METAR KP58 212151Z AUTO 22006KT M04/M12 A3035 RMK AO1 SLP294
T10391122





000
SAUS43 KDTX 212056 COR
MTRP58
METAR KP58 212051Z AUTO 24006KT M04/M13 A3036 RMK AO1 SLP297
T10391128 58004





000
SAUS43 KDTX 212053 COR
MTRP58
METAR KP58 212051Z AUTO 24006KT M04/M13 A3036 RMK AO1 SLP297
T10391128 58004





000
SAUS43 KDTX 211954
MTRP58
METAR KP58 211951Z AUTO 23007G15KT 200V260 M03/M12 A3036 RMK AO1
SLP296 T10331117





000
SAUS43 KDTX 211857 COR
MTRP58
METAR KP58 211851Z AUTO 27007KT M03/M12 A3038 RMK AO1 SLP302
T10331122





000
SAUS43 KDTX 211854 COR
MTRP58
METAR KP58 211851Z AUTO 27007KT M03/M12 A3038 RMK AO1 SLP302
T10331122





000
SAUS43 KDTX 211757 COR
MTRP58
METAR KP58 211751Z AUTO 26007KT 230V290 M03/M12 A3037 RMK AO1 SLP300
T10331122 11033 21072 51004





000
SAUS43 KDTX 211754 COR
MTRP58
METAR KP58 211751Z AUTO 26007KT 230V290 M03/M12 A3037 RMK AO1 SLP300
T10331122 11033 21072 51004





000
SAUS43 KDTX 211654
MTRP58
METAR KP58 211651Z AUTO VRB06KT M04/M12 A3037 RMK AO1 SLP301
T10441122





000
SAUS43 KDTX 211554
MTRP58
METAR KP58 211551Z AUTO 28007KT M04/M12 A3037 RMK AO1 SLP301
T10391122





000
SAUS43 KDTX 211554
MTRP58
METAR KP58 211551Z AUTO 28007KT M04/M12 A3037 RMK AO1 SLP301
T10391122





000
SAUS43 KDTX 211452
MTRP58
METAR KP58 211451Z AUTO 27009G18KT 220V310 M05/M12 A3036 RMK AO1
SLP297 T10501117 52025





000
SAUS43 KDTX 211354
MTRP58
METAR KP58 211351Z AUTO 28009G17KT M06/M12 A3034 RMK AO1 SLP289
T10611122





000
SAUS43 KDTX 211254
MTRP58
METAR KP58 211251Z AUTO 28007KT 250V310 M07/M13 A3031 RMK AO1 SLP281
T10671133





000
SAUS43 KDTX 211154
MTRP58
METAR KP58 211151Z AUTO 28008G16KT M07/M14 A3029 RMK AO1 SLP273
T10671139 11056 21067





000
SAUS43 KDTX 211054
MTRP58
METAR KP58 211051Z AUTO 28007KT M07/M13 A3027 RMK AO1 SLP266
T10671128





000
SAUS43 KDTX 210952
MTRP58
METAR KP58 210951Z AUTO 29010G19KT M06/M12 A3023 RMK AO1 SLP253
T10611117





000
SAUS43 KDTX 210854
MTRP58
METAR KP58 210851Z AUTO 30010G19KT M06/M12 A3019 RMK AO1 SLP240
T10611122 53032





000
SAUS43 KDTX 210752
MTRP58
METAR KP58 210751Z AUTO 30011G20KT M06/M11 A3016 RMK AO1 SLP227
T10561111





000
SAUS43 KDTX 210654
MTRP58
METAR KP58 210651Z AUTO 30012G19KT M06/M11 A3012 RMK AO1 SLP215
T10561111





000
SAUS43 KDTX 210554
MTRP58
METAR KP58 210551Z AUTO 29009G18KT M06/M11 A3010 RMK AO1 SLP206
T10561111 11056 21061 53026





000
SAUS43 KDTX 210454
MTRP58
METAR KP58 210451Z AUTO 28011G20KT M06/M11 A3007 RMK AO1 SLP196
T10561111 410331061





000
SAUS43 KDTX 210354
MTRP58
METAR KP58 210351Z AUTO 28011G18KT M06/M12 A3004 RMK AO1 SLP188
T10561117





000
SAUS43 KDTX 210354
MTRP58
METAR KP58 210351Z AUTO 28011G18KT M06/M12 A3004 RMK AO1 SLP188
T10561117





000
SAUS43 KDTX 210254
MTRP58
METAR KP58 210251Z AUTO 29011G20KT 270V330 M06/M12 A3002 RMK AO1
SLP179 T10561117 53021





000
SAUS43 KDTX 210158 COR
MTRP58
METAR KP58 210151Z AUTO 28009G20KT 250V320 M06/M13 A2999 RMK AO1
SLP172 T10561128





000
SAUS43 KDTX 210154 COR
MTRP58
METAR KP58 210151Z AUTO 28009G20KT 250V320 M06/M13 A2999 RMK AO1
SLP172 T10561128





000
SAUS43 KDTX 210054
MTRP58
METAR KP58 210051Z AUTO 28011G17KT M06/M13 A2997 RMK AO1 SLP165
T10561128





000
SAUS43 KDTX 202352
MTRP58
METAR KP58 202351Z AUTO 28012G22KT M06/M14 A2995 RMK AO1 SLP158
T10561144 11033 21056 51036





000
SAUS43 KDTX 202254
MTRP58
METAR KP58 202251Z AUTO 28011G20KT M05/M14 A2992 RMK AO1 SLP148
T10501144





000
SAUS43 KDTX 202154
MTRP58
METAR KP58 202151Z AUTO 27010G17KT 230V300 M05/M15 A2988 RMK AO1
SLP132 T10501150





000
SAUS43 KDTX 202059 COR
MTRP58
METAR KP58 202051Z AUTO 25010G21KT M04/M14 A2984 RMK AO1 SLP121
T10441139 53016





000
SAUS43 KDTX 202055 COR
MTRP58
METAR KP58 202051Z AUTO 25010G21KT M04/M14 A2984 RMK AO1 SLP121





000
SAUS43 KDTX 202054
MTRP58
METAR KP58 202051Z!c
M10G21KT M04/M14 A2984 "~`*-L
T10441139 53016





000
SAUS43 KDTX 201954
MTRP58
METAR KP58 201951Z AUTO 25012G19KT M04/M14 A2982 RMK AO1 SLP112
T10391139





000
SAUS43 KDTX 201857 COR
MTRP58
METAR KP58 201851Z AUTO 28009G22KT M04/M12 A2981 RMK AO1 SLP109
T10391117





000
SAUS43 KDTX 201855 COR
MTRP58
METAR KP58 201851Z AUTO 28009G22KT M04/M12 A2981 RMK AO1 SLP109
T10391117





000
SAUS43 KDTX 201854 COR
MTRP58
METAR KP58 201851Z AUTO 28009G22KT M04/M12 A2981 RMK AO1 SLP109
T10391117





000
SAUS43 KDTX 201754 COR
MTRP58
METAR KP58 201751Z AUTO 27011G17KT 240V300 M04/M14 A2980 RMK AO1 PK
WND 24027/1700 SLP104 T10391139 11033 21056 51004





000
SAUS43 KDTX 201654
MTRP58
METAR KP58 201651Z AUTO 27011G25KT 230V300 M04/M13 A2979 RMK AO1
SLP102 T10391133





000
SAUS43 KDTX 201556 COR
MTRP58
METAR KP58 201551Z AUTO 27015G24KT 240V300 M04/M12 A2980 RMK AO1
SLP104 T10441122





000
SAUS43 KDTX 201555 COR
MTRP58
METAR KP58 201551Z AUTO 27015G24KT 240V300 M04/M12 A2980 RMK AO1
SLP104 T10441122





000
SAUS43 KDTX 201554
MTRP58
METAR KP58 201551Z AUTO 27015G24KT 240V300 M04/M12 A2980 RMK AO1
SLP104 T10441122





000
SAUS43 KDTX 201454
MTRP58
METAR KP58 201451Z AUTO 27014G24KT 240V300 M04/M11 A2979 RMK AO1
SLP101 T10391111 53013





000
SAUS43 KDTX 201354
MTRP58
METAR KP58 201351Z AUTO 25013G23KT M05/M11 A2978 RMK AO1 SLP097
T10501111





000
SAUS43 KDTX 201253
MTRP58
METAR KP58 201251Z AUTO 25011G17KT 220V290 M06/M12 A2976 RMK AO1
SLP090 T10561117





000
SAUS43 KDTX 201156 COR
MTRP58
METAR KP58 201151Z AUTO 26009G18KT M06/M11 A2975 RMK AO1 SLP089
70003 T10561111 11050 21056 51010





000
SAUS43 KDTX 201154 COR
MTRP58
METAR KP58 201151Z AUTO 26009G18KT M06/M11 A2975 RMK AO1 SLP089
70003 T10561111 11050 21056 51010





000
SAUS43 KDTX 201054
MTRP58
METAR KP58 201051Z AUTO 24010G17KT M05/M11 A2974 RMK AO1 SLP085
T10501106





000
SAUS43 KDTX 200956 COR
MTRP58
METAR KP58 200951Z AUTO 25010G22KT M05/M11 A2974 RMK AO1 SLP083
T10501106





000
SAUS43 KDTX 200956 COR
MTRP58
METAR KP58 200951Z AUTO 25010G22KT M05/M11 A2974 RMK AO1 SLP083
T10501106





000
SAUS43 KDTX 200954 COR
MTRP58
METAR KP58 200951Z AUTO 25010G22KT M05/M11 A2974 RMK AO1 SLP083
T10501106





000
SAUS43 KDTX 200954 COR
MTRP58
METAR KP58 200951Z AUTO 25010G22KT M05/M11 A2974 RMK AO1 SLP083
T10501106





000
SAUS43 KDTX 200854
MTRP58
METAR KP58 200851Z AUTO 24012G19KT M06/M11 A2972 RMK AO1 SLP078
T10561106 53006





000
SAUS43 KDTX 200754
MTRP58
METAR KP58 200751Z AUTO 24012G21KT M05/M11 A2971 RMK AO1 SLP074
T10501106





000
SAUS43 KDTX 200654
MTRP58
METAR KP58 200651Z AUTO 26010G19KT M05/M11 A2970 RMK AO1 SLP070
T10501106





000
SAUS43 KDTX 200553
MTRP58
METAR KP58 200551Z AUTO 25008G16KT M05/M11 A2970 RMK AO1 SLP071
T10501106 11033 21050 53013





000
SAUS43 KDTX 200454
MTRP58
METAR KP58 200451Z AUTO 25012G20KT M04/M11 A2969 RMK AO1 SLP068
T10441106 410331089





000
SAUS43 KDTX 200354
MTRP58
METAR KP58 200351Z AUTO 25012G23KT M04/M09 A2967 RMK AO1 SLP063
T10391094





000
SAUS43 KDTX 200354
MTRP58
METAR KP58 200351Z AUTO 25012G23KT M04/M09 A2967 RMK AO1 SLP063
T10391094





000
SAUS43 KDTX 200254 COR
MTRP58
METAR KP58 200251Z AUTO 26011G22KT M04/M10 A2966 RMK AO1 SLP060
T10391100 53011





000
SAUS43 KDTX 200253 COR
MTRP58
METAR KP58 200251Z AUTO 26011G22KT M04/M10 A2966 RMK AO1 SLP060
T10391100 53011





000
SAUS43 KDTX 200154
MTRP58
METAR KP58 200151Z AUTO 25008G19KT 200V290 M03/M09 A2964 RMK AO1
SLP053 T10331089





000
SAUS43 KDTX 200054
MTRP58
METAR KP58 200051Z AUTO 24010G18KT 200V280 M03/M07 A2963 RMK AO1
SLP050 T10331067





    US Dept of Commerce
    National Oceanic and Atmospheric Administration
    National Weather Service
    1325 East West Highway
    Silver Spring, MD 20910
    Page Author: NWS Internet Services Team
Disclaimer
Information Quality
Credits
Glossary
Privacy Policy
Freedom of Information Act (FOIA)
About Us
Career Opportunities